Celebrity Reflection — 9HA3047 — position and weather

sailwx.info

Track history (hours):
 
Tides and Currents Weather Stations Pressure Air Temp Water Temp Dewpoint Dewpoint Depression Visibility Wind Speed Wind Dir Waves Ship Positions

Celebrity Reflection

Last reported at 2017-Aug-18 10:28 UTC. Time now 2017-Aug-18 10:51 UTC.
Position N 37°56' E 023°37'.

Length 319 m; draft 8.6 m.

Type: Passenger vessel. MMSI: 229074000.

Date/timePositionNaut miles runAvg speedWind from/ knotsBaromVisibWave heightAir tempDewpointWater temp
2017-Aug-18 10:28N 37°56' E 023°37'0 0.0
2017-Aug-18 09:58N 37°56' E 023°37'0 0.0
2017-Aug-18 09:28N 37°56' E 023°37'0 0.0
2017-Aug-18 08:58N 37°56' E 023°37'0 0.0
2017-Aug-18 08:28N 37°56' E 023°37'62131.1
2017-Aug-18 08:00N 36°54' E 023°36'622353.9 350 / 81011.0 5.4 30.0
2017-Aug-18 07:58N 37°56' E 023°37'0 0.0
2017-Aug-18 07:28N 37°56' E 023°37'0 0.0
2017-Aug-18 06:58N 37°56' E 023°37'0 0.0
2017-Aug-18 06:28N 37°56' E 023°37'0 0.0
2017-Aug-18 05:58N 37°56' E 023°37'0 0.0
2017-Aug-18 05:28N 37°56' E 023°37'2 5.0
2017-Aug-18 05:00N 37°54' E 023°36'290.3 320 / 151008.0 27.0 26.5
2017-Aug-18 04:58N 37°56' E 023°37'0 0.0
2017-Aug-18 04:28N 37°56' E 023°37'0 0.0
2017-Aug-18 03:58N 37°56' E 023°37'0 0.0
2017-Aug-18 03:25N 37°56' E 023°37'0 0.0
2017-Aug-18 02:58N 37°56' E 023°37'0 0.0
2017-Aug-18 02:28N 37°56' E 023°37'0 0.0
2017-Aug-18 01:58N 37°56' E 023°37'0 0.3
2017-Aug-18 01:30N 37°56' E 023°37'1 2.5
2017-Aug-18 01:00N 37°55' E 023°37'611.9
2017-Aug-18 00:30N 37°50' E 023°40'612.8
2017-Aug-18 00:00N 37°44' E 023°44'2134.3
2017-Aug-18 00:00N 37°42' E 023°42'611.7 350 / 161010.010.8 25.0
2017-Aug-17 23:30N 37°38' E 023°47'713.2
2017-Aug-17 23:00N 37°32' E 023°50'713.0
2017-Aug-17 22:30N 37°26' E 023°54'2516.2
2017-Aug-17 21:00N 37°06' E 024°12'71 7.9 350 / 251009.0 5.4 25.0
2017-Aug-17 12:00N 36°24' E 025°24'0 0.0 350 / 161007.010.8 28.5
2017-Aug-17 05:00N 36°24' E 025°24'0 0.0 350 / 201001.0 5.4 25.0
2017-Aug-17 04:00N 36°24' E 025°24'10 4.8 330 / 271003.0 25.0 24.9
2017-Aug-17 02:00N 36°24' E 025°36'2010.1 360 / 351004.0 26.0 24.7
2017-Aug-17 00:00N 36°18' E 026°00'4411.0 350 / 331004.010.8 25.0
2017-Aug-16 20:00N 36°12' E 026°54'4515.0 350 / 371002.0 5.4 25.0
2017-Aug-16 17:00N 36°24' E 027°48'19 3.9 230 / 101003.0 5.4 29.0 27.9
2017-Aug-16 12:00N 36°24' E 028°12'0 0.0 280 / 151003.010.8 27.0
2017-Aug-16 07:00N 36°24' E 028°12'44 6.3 280 / 131004.0 5.4 23.0
2017-Aug-16 00:00N 36°30' E 027°18'4715.6 340 / 251005.010.8 25.0
2017-Aug-15 21:00N 36°48' E 026°24'3711.9 330 / 201008.0 5.4 25.0
2017-Aug-15 17:54N 37°14' E 025°51'513.8
2017-Aug-15 17:30N 37°18' E 025°47'813.7
2017-Aug-15 16:54N 37°24' E 025°40'513.8
2017-Aug-15 16:30N 37°28' E 025°35'713.8
2017-Aug-15 16:01N 37°31' E 025°27'7419.7
2017-Aug-15 16:00N 37°24' E 025°30'1123.4 350 / 271011.0 2.2 26.0 24.2
2017-Aug-15 15:30N 37°30' E 025°18'2 4.6
2017-Aug-15 14:58N 37°28' E 025°19'0 0.0
2017-Aug-15 14:22N 37°28' E 025°19'0 0.0
2017-Aug-15 13:58N 37°28' E 025°19'0 0.0
2017-Aug-15 13:28N 37°28' E 025°19'4 8.5
2017-Aug-15 13:00N 37°24' E 025°18'4165.7 360 / 321012.0 27.0 24.1
2017-Aug-15 12:58N 37°28' E 025°19'0 0.0
2017-Aug-15 12:28N 37°28' E 025°19'4 8.5
2017-Aug-15 12:00N 37°24' E 025°18'4163.9 360 / 301012.010.8 26.4 24.0
2017-Aug-15 11:58N 37°28' E 025°19'0 0.0
2017-Aug-15 11:28N 37°28' E 025°19'0 0.0
2017-Aug-15 10:58N 37°28' E 025°19'0 0.0
2017-Aug-15 10:28N 37°28' E 025°19'0 0.0
2017-Aug-15 09:58N 37°28' E 025°19'0 0.0
2017-Aug-15 09:28N 37°28' E 025°19'4 8.5
2017-Aug-15 09:00N 37°24' E 025°18'4165.7 360 / 201013.0 5.4 25.0
2017-Aug-15 08:58N 37°28' E 025°19'0 0.0
2017-Aug-15 08:28N 37°28' E 025°19'0 0.0
2017-Aug-15 07:58N 37°28' E 025°19'0 0.0
2017-Aug-15 07:22N 37°28' E 025°19'0 0.0
2017-Aug-15 06:58N 37°28' E 025°19'0 0.0
2017-Aug-15 06:28N 37°28' E 025°19'0 0.0
2017-Aug-15 05:55N 37°28' E 025°19'0 0.0
2017-Aug-15 05:28N 37°28' E 025°19'0 0.0
2017-Aug-15 04:58N 37°28' E 025°19'0 0.0
2017-Aug-15 04:28N 37°28' E 025°19'0 0.0
2017-Aug-15 03:58N 37°28' E 025°19'0 0.0
2017-Aug-15 03:28N 37°28' E 025°19'0 0.0
2017-Aug-15 03:01N 37°28' E 025°19'0 0.6
2017-Aug-15 02:31N 37°28' E 025°19'714.0
2017-Aug-15 02:00N 37°28' E 025°10'815.4
2017-Aug-15 01:30N 37°23' E 025°02'815.4
2017-Aug-15 01:01N 37°18' E 024°55'1919.1
2017-Aug-15 00:00N 37°06' E 024°36'6 9.4 340 / 301014.010.8 26.0
2017-Aug-14 23:19N 37°02' E 024°30'1115.1
2017-Aug-14 22:34N 36°56' E 024°18'115.2
2017-Aug-14 22:28N 36°55' E 024°16'3413.5
2017-Aug-14 20:00N 36°36' E 023°42'6516.3 330 / 151014.0 5.4 24.0
2017-Aug-14 16:00N 36°18' E 022°24'6817.0 290 / 141012.0 5.4 26.0 27.5
2017-Aug-14 12:00N 36°12' E 021°00'5814.6 340 / 281014.010.8 26.0
2017-Aug-14 08:00N 36°06' E 019°48'5819.4 350 / 281014.0 5.4 27.0
2017-Aug-14 05:00N 36°06' E 018°36'7314.6 350 / 271015.0 5.4 27.0 28.3
2017-Aug-14 00:00N 36°00' E 017°06'8916.2 340 / 181015.027.0 26.0
2017-Aug-13 18:31N 35°56' E 015°16'016.0
2017-Aug-13 18:29N 35°56' E 015°16'816.1
2017-Aug-13 18:00N 35°55' E 015°06'816.1
2017-Aug-13 17:30N 35°55' E 014°56'815.1
2017-Aug-13 17:00N 35°55' E 014°47'196.2
2017-Aug-13 17:00N 35°54' E 014°48'817.4 320 / 161015.0 2.2 26.0 27.2
2017-Aug-13 16:30N 35°55' E 014°38'510.9
2017-Aug-13 16:00N 35°54' E 014°31'6 1.5
2017-Aug-13 12:00N 35°48' E 014°30'0 0.0 360 / 101016.010.8 28.0
2017-Aug-13 07:00N 35°48' E 014°30'0 0.0 300 / 61015.0 5.4 27.0
2017-Aug-13 06:00N 35°48' E 014°30'611.2 290 / 61014.0 5.4 27.0 29.0
2017-Aug-13 05:29N 35°54' E 014°31'2 4.8
2017-Aug-13 05:00N 35°55' E 014°33'815.2
2017-Aug-13 04:30N 36°01' E 014°39'815.4
2017-Aug-13 04:00N 36°08' E 014°44'815.4
2017-Aug-13 03:30N 36°14' E 014°50'713.7
2017-Aug-13 02:58N 36°20' E 014°55'1611.6
2017-Aug-13 01:34N 36°33' E 015°07'1711.1
2017-Aug-13 00:00N 36°48' E 015°18'2412.2 300 / 171014.010.8 26.0
2017-Aug-12 22:00N 37°12' E 015°24'311.5 340 / 101014.0 5.4 27.0
2017-Aug-12 21:44N 37°14' E 015°27'311.4
2017-Aug-12 21:30N 37°16' E 015°27'611.4
2017-Aug-12 20:59N 37°22' E 015°28'1811.5
2017-Aug-12 19:24N 37°40' E 015°31'512.4
2017-Aug-12 18:59N 37°46' E 015°32'715.3
2017-Aug-12 18:30N 37°53' E 015°33'815.1
2017-Aug-12 18:00N 38°00' E 015°34'815.7
2017-Aug-12 17:30N 38°08' E 015°35'4 7.4
2017-Aug-12 17:00N 38°12' E 015°33'0 0.0
2017-Aug-12 16:27N 38°12' E 015°33'0 0.0
2017-Aug-12 16:00N 38°12' E 015°33'0 0.0
2017-Aug-12 15:27N 38°12' E 015°33'0 0.0
2017-Aug-12 15:00N 38°12' E 015°33'0 0.0
2017-Aug-12 14:30N 38°12' E 015°33'0 0.0
2017-Aug-12 14:00N 38°12' E 015°33'0 0.0
2017-Aug-12 13:30N 38°12' E 015°33'0 0.0
2017-Aug-12 13:00N 38°12' E 015°33'0 0.0
2017-Aug-12 12:30N 38°12' E 015°33'0 0.0
2017-Aug-12 12:00N 38°12' E 015°33'63198.4
2017-Aug-12 12:00N 38°06' E 015°30'6 8.3 330 / 151015.010.8 29.6
2017-Aug-12 11:15N 38°12' E 015°33'0 0.0
2017-Aug-12 11:00N 38°12' E 015°33'0 0.0
2017-Aug-12 10:29N 38°12' E 015°33'0 0.0
2017-Aug-12 09:56N 38°12' E 015°33'0 0.0
2017-Aug-12 09:29N 38°12' E 015°33'0 0.0
2017-Aug-12 08:59N 38°12' E 015°33'0 0.0
2017-Aug-12 08:29N 38°12' E 015°33'0 0.0
2017-Aug-12 07:59N 38°12' E 015°33'0 0.4
2017-Aug-12 07:30N 38°12' E 015°34'510.7
2017-Aug-12 07:00N 38°15' E 015°39'713.9
2017-Aug-12 06:30N 38°22' E 015°38'816.8
2017-Aug-12 06:00N 38°30' E 015°33'916.9
2017-Aug-12 05:30N 38°37' E 015°27'919.4
2017-Aug-12 05:00N 38°46' E 015°22'1019.3
2017-Aug-12 04:30N 38°54' E 015°16'2919.2
2017-Aug-12 03:00N 39°16' E 014°52'17719.6
2017-Aug-11 18:00N 41°24' E 012°12'48 7.9 280 / 301015.0 2.2 24.0 26.9
2017-Aug-11 12:00N 42°06' E 011°42'0 0.0 240 / 161015.010.8 24.0
2017-Aug-11 10:00N 42°06' E 011°42'0 0.0 270 / 151014.0 5.4 27.0
2017-Aug-11 05:00N 42°06' E 011°42'32 6.5 220 / 101018.0 2.2 26.0 28.2
2017-Aug-11 00:00N 41°48' E 011°06'4214.0 260 / 221014.0 5.4 24.0
2017-Aug-10 21:00N 41°36' E 010°12'5518.3 270 / 301013.0 5.4 26.0
2017-Aug-10 18:00N 41°12' E 009°06'3114.4 290 / 181018.0 2.2 26.0 26.4
2017-Aug-10 15:52N 41°13' E 008°25'6316.3
2017-Aug-10 12:00N 40°42' E 007°12'24540.8 330 / 301018.0 5.4 21.0
2017-Aug-10 06:00N 36°54' E 005°18'17157.1 020 / 381016.0 2.2 40.0 27.1
2017-Aug-10 03:00N 39°42' E 004°36'2416.0 360 / 331013.0 2.2 25.0 27.4
2017-Aug-10 01:29N 39°29' E 004°10'915.8
2017-Aug-10 00:54N 39°24' E 003°59'716.0
2017-Aug-10 00:28N 39°21' E 003°51'816.1
2017-Aug-10 00:00N 39°17' E 003°43'519720.4
2017-Aug-10 00:00N 39°12' E 003°42'713.4 020 / 301012.0 5.4 23.0
2017-Aug-09 23:30N 39°14' E 003°34'816.0
2017-Aug-09 23:00N 39°10' E 003°25'816.0
2017-Aug-09 22:30N 39°06' E 003°16'815.6
2017-Aug-09 22:00N 39°05' E 003°06'815.6
2017-Aug-09 21:30N 39°04' E 002°56'815.5
2017-Aug-09 21:00N 39°03' E 002°46'815.5
2017-Aug-09 20:30N 39°02' E 002°36'815.5
2017-Aug-09 20:00N 39°00' E 002°26'815.5
2017-Aug-09 19:30N 38°59' E 002°16'815.6
2017-Aug-09 19:00N 38°58' E 002°06'815.5
2017-Aug-09 18:30N 38°57' E 001°57'815.6
2017-Aug-09 18:01N 38°56' E 001°47'4247.0
2017-Aug-09 18:00N 38°54' E 001°42'4 8.4 090 / 301013.0 2.2 26.8
2017-Aug-09 17:30N 38°55' E 001°37'714.9
2017-Aug-09 17:00N 38°54' E 001°27'0 0.9
2017-Aug-09 16:26N 38°54' E 001°27'0 0.0
2017-Aug-09 15:59N 38°54' E 001°27'0 0.0
2017-Aug-09 15:29N 38°54' E 001°27'2 4.7
2017-Aug-09 15:00N 38°54' E 001°24'2 8.8 080 / 111013.0 2.2 27.0 28.4
2017-Aug-09 14:44N 38°54' E 001°27'0 0.0
2017-Aug-09 14:29N 38°54' E 001°27'0 0.0
2017-Aug-09 13:59N 38°54' E 001°27'0 0.0
2017-Aug-09 13:29N 38°54' E 001°27'0 0.0
2017-Aug-09 12:59N 38°54' E 001°27'0 0.0
2017-Aug-09 12:26N 38°54' E 001°27'2 5.2
2017-Aug-09 12:00N 38°54' E 001°24'2186.9 090 / 121014.0 5.4 27.0 28.0
2017-Aug-09 11:59N 38°54' E 001°27'0 0.0
2017-Aug-09 11:29N 38°54' E 001°27'0 0.0
2017-Aug-09 10:59N 38°54' E 001°27'0 0.0
2017-Aug-09 10:29N 38°54' E 001°27'0 0.0
2017-Aug-09 09:59N 38°54' E 001°27'0 0.0
2017-Aug-09 09:28N 38°54' E 001°27'0 0.0
2017-Aug-09 08:58N 38°54' E 001°27'0 0.0
2017-Aug-09 08:28N 38°54' E 001°27'0 0.0
2017-Aug-09 07:58N 38°54' E 001°27'0 0.0
2017-Aug-09 07:28N 38°54' E 001°27'2 4.8
2017-Aug-09 07:00N 38°54' E 001°24'292.4 100 / 151014.0 5.4 25.0
2017-Aug-09 06:58N 38°54' E 001°27'0 0.0
2017-Aug-09 06:28N 38°54' E 001°27'2 4.8
2017-Aug-09 06:00N 38°54' E 001°24'2540.2 100 / 161013.0 2.2 24.0 28.2
2017-Aug-09 05:59N 38°54' E 001°27'1 1.4
2017-Aug-09 05:30N 38°54' E 001°27'3 6.0
2017-Aug-09 05:00N 38°51' E 001°30'611.9
2017-Aug-09 04:30N 38°47' E 001°35'611.7
2017-Aug-09 03:59N 38°42' E 001°39'510.8
2017-Aug-09 03:30N 38°37' E 001°36'611.3
2017-Aug-09 02:56N 38°33' E 001°30'611.5
2017-Aug-09 02:26N 38°30' E 001°24'512.2
2017-Aug-09 02:00N 38°27' E 001°18'2012.8
2017-Aug-09 00:27N 38°15' E 000°58'817.9
2017-Aug-09 00:00N 38°12' E 000°48'1511.4 360 / 161013.0 5.4 27.0
2017-Aug-08 22:39N 38°02' E 000°33'312.6
2017-Aug-08 22:27N 38°01' E 000°31'2012.5
2017-Aug-08 20:49N 37°49' E 000°09'512.4
2017-Aug-08 20:25N 37°46' E 000°04'512.4
2017-Aug-08 20:00N 37°43' W 000°01'612.5
2017-Aug-08 19:30N 37°40' W 000°08'612.6
2017-Aug-08 19:00N 37°37' W 000°14'612.5
2017-Aug-08 18:30N 37°33' W 000°21'612.6
2017-Aug-08 18:00N 37°31' W 000°28'1100.9
2017-Aug-08 18:00N 37°30' W 000°30'510.4 360 / 51010.0 29.0
2017-Aug-08 17:30N 37°30' W 000°36'613.0
2017-Aug-08 17:00N 37°31' W 000°44'612.9
2017-Aug-08 16:30N 37°32' W 000°53'6 4.9
2017-Aug-08 15:13N 37°36' W 000°59'7 2.2
2017-Aug-08 12:00N 37°30' W 000°54'   190 / 131010.0 5.4 30.0 30.0
Track history (hours):
 
Tides and Currents Weather Stations Pressure Air Temp Water Temp Dewpoint Dewpoint Depression Visibility Wind Speed Wind Dir Waves Ship Positions

Celebrity Reflection

Last reported at 2017-Aug-18 10:28 UTC. Time now 2017-Aug-18 10:51 UTC.
Position N 37°56' E 023°37'.

Length 319 m; draft 8.6 m.

Type: Passenger vessel. MMSI: 229074000.

Date/timePositionNaut miles runAvg speedWind from/ knotsBaromVisibWave heightAir tempDewpointWater temp
2017-Aug-18 10:28N 37°56' E 023°37'0 0.0
2017-Aug-18 09:58N 37°56' E 023°37'0 0.0
2017-Aug-18 09:28N 37°56' E 023°37'0 0.0
2017-Aug-18 08:58N 37°56' E 023°37'0 0.0
2017-Aug-18 08:28N 37°56' E 023°37'62131.1
2017-Aug-18 08:00N 36°54' E 023°36'622353.9 350 / 81011.0 5.4 30.0
2017-Aug-18 07:58N 37°56' E 023°37'0 0.0
2017-Aug-18 07:28N 37°56' E 023°37'0 0.0
2017-Aug-18 06:58N 37°56' E 023°37'0 0.0
2017-Aug-18 06:28N 37°56' E 023°37'0 0.0
2017-Aug-18 05:58N 37°56' E 023°37'0 0.0
2017-Aug-18 05:28N 37°56' E 023°37'2 5.0
2017-Aug-18 05:00N 37°54' E 023°36'290.3 320 / 151008.0 27.0 26.5
2017-Aug-18 04:58N 37°56' E 023°37'0 0.0
2017-Aug-18 04:28N 37°56' E 023°37'0 0.0
2017-Aug-18 03:58N 37°56' E 023°37'0 0.0
2017-Aug-18 03:25N 37°56' E 023°37'0 0.0
2017-Aug-18 02:58N 37°56' E 023°37'0 0.0
2017-Aug-18 02:28N 37°56' E 023°37'0 0.0
2017-Aug-18 01:58N 37°56' E 023°37'0 0.3
2017-Aug-18 01:30N 37°56' E 023°37'1 2.5
2017-Aug-18 01:00N 37°55' E 023°37'611.9
2017-Aug-18 00:30N 37°50' E 023°40'612.8
2017-Aug-18 00:00N 37°44' E 023°44'2134.3
2017-Aug-18 00:00N 37°42' E 023°42'611.7 350 / 161010.010.8 25.0
2017-Aug-17 23:30N 37°38' E 023°47'713.2
2017-Aug-17 23:00N 37°32' E 023°50'713.0
2017-Aug-17 22:30N 37°26' E 023°54'2516.2
2017-Aug-17 21:00N 37°06' E 024°12'71 7.9 350 / 251009.0 5.4 25.0
2017-Aug-17 12:00N 36°24' E 025°24'0 0.0 350 / 161007.010.8 28.5
2017-Aug-17 05:00N 36°24' E 025°24'0 0.0 350 / 201001.0 5.4 25.0
2017-Aug-17 04:00N 36°24' E 025°24'10 4.8 330 / 271003.0 25.0 24.9
2017-Aug-17 02:00N 36°24' E 025°36'2010.1 360 / 351004.0 26.0 24.7
2017-Aug-17 00:00N 36°18' E 026°00'4411.0 350 / 331004.010.8 25.0
2017-Aug-16 20:00N 36°12' E 026°54'4515.0 350 / 371002.0 5.4 25.0
2017-Aug-16 17:00N 36°24' E 027°48'19 3.9 230 / 101003.0 5.4 29.0 27.9
2017-Aug-16 12:00N 36°24' E 028°12'0 0.0 280 / 151003.010.8 27.0
2017-Aug-16 07:00N 36°24' E 028°12'44 6.3 280 / 131004.0 5.4 23.0
2017-Aug-16 00:00N 36°30' E 027°18'4715.6 340 / 251005.010.8 25.0
2017-Aug-15 21:00N 36°48' E 026°24'3711.9 330 / 201008.0 5.4 25.0
2017-Aug-15 17:54N 37°14' E 025°51'513.8
2017-Aug-15 17:30N 37°18' E 025°47'813.7
2017-Aug-15 16:54N 37°24' E 025°40'513.8
2017-Aug-15 16:30N 37°28' E 025°35'713.8
2017-Aug-15 16:01N 37°31' E 025°27'7419.7
2017-Aug-15 16:00N 37°24' E 025°30'1123.4 350 / 271011.0 2.2 26.0 24.2
2017-Aug-15 15:30N 37°30' E 025°18'2 4.6
2017-Aug-15 14:58N 37°28' E 025°19'0 0.0
2017-Aug-15 14:22N 37°28' E 025°19'0 0.0
2017-Aug-15 13:58N 37°28' E 025°19'0 0.0
2017-Aug-15 13:28N 37°28' E 025°19'4 8.5
2017-Aug-15 13:00N 37°24' E 025°18'4165.7 360 / 321012.0 27.0 24.1
2017-Aug-15 12:58N 37°28' E 025°19'0 0.0
2017-Aug-15 12:28N 37°28' E 025°19'4 8.5
2017-Aug-15 12:00N 37°24' E 025°18'4163.9 360 / 301012.010.8 26.4 24.0
2017-Aug-15 11:58N 37°28' E 025°19'0 0.0
2017-Aug-15 11:28N 37°28' E 025°19'0 0.0
2017-Aug-15 10:58N 37°28' E 025°19'0 0.0
2017-Aug-15 10:28N 37°28' E 025°19'0 0.0
2017-Aug-15 09:58N 37°28' E 025°19'0 0.0
2017-Aug-15 09:28N 37°28' E 025°19'4 8.5
2017-Aug-15 09:00N 37°24' E 025°18'4165.7 360 / 201013.0 5.4 25.0
2017-Aug-15 08:58N 37°28' E 025°19'0 0.0
2017-Aug-15 08:28N 37°28' E 025°19'0 0.0
2017-Aug-15 07:58N 37°28' E 025°19'0 0.0
2017-Aug-15 07:22N 37°28' E 025°19'0 0.0
2017-Aug-15 06:58N 37°28' E 025°19'0 0.0
2017-Aug-15 06:28N 37°28' E 025°19'0 0.0
2017-Aug-15 05:55N 37°28' E 025°19'0 0.0
2017-Aug-15 05:28N 37°28' E 025°19'0 0.0
2017-Aug-15 04:58N 37°28' E 025°19'0 0.0
2017-Aug-15 04:28N 37°28' E 025°19'0 0.0
2017-Aug-15 03:58N 37°28' E 025°19'0 0.0
2017-Aug-15 03:28N 37°28' E 025°19'0 0.0
2017-Aug-15 03:01N 37°28' E 025°19'0 0.6
2017-Aug-15 02:31N 37°28' E 025°19'714.0
2017-Aug-15 02:00N 37°28' E 025°10'815.4
2017-Aug-15 01:30N 37°23' E 025°02'815.4
2017-Aug-15 01:01N 37°18' E 024°55'1919.1
2017-Aug-15 00:00N 37°06' E 024°36'6 9.4 340 / 301014.010.8 26.0
2017-Aug-14 23:19N 37°02' E 024°30'1115.1
2017-Aug-14 22:34N 36°56' E 024°18'115.2
2017-Aug-14 22:28N 36°55' E 024°16'3413.5
2017-Aug-14 20:00N 36°36' E 023°42'6516.3 330 / 151014.0 5.4 24.0
2017-Aug-14 16:00N 36°18' E 022°24'6817.0 290 / 141012.0 5.4 26.0 27.5
2017-Aug-14 12:00N 36°12' E 021°00'5814.6 340 / 281014.010.8 26.0
2017-Aug-14 08:00N 36°06' E 019°48'5819.4 350 / 281014.0 5.4 27.0
2017-Aug-14 05:00N 36°06' E 018°36'7314.6 350 / 271015.0 5.4 27.0 28.3
2017-Aug-14 00:00N 36°00' E 017°06'8916.2 340 / 181015.027.0 26.0
2017-Aug-13 18:31N 35°56' E 015°16'016.0
2017-Aug-13 18:29N 35°56' E 015°16'816.1
2017-Aug-13 18:00N 35°55' E 015°06'816.1
2017-Aug-13 17:30N 35°55' E 014°56'815.1
2017-Aug-13 17:00N 35°55' E 014°47'196.2
2017-Aug-13 17:00N 35°54' E 014°48'817.4 320 / 161015.0 2.2 26.0 27.2
2017-Aug-13 16:30N 35°55' E 014°38'510.9
2017-Aug-13 16:00N 35°54' E 014°31'6 1.5
2017-Aug-13 12:00N 35°48' E 014°30'0 0.0 360 / 101016.010.8 28.0
2017-Aug-13 07:00N 35°48' E 014°30'0 0.0 300 / 61015.0 5.4 27.0
2017-Aug-13 06:00N 35°48' E 014°30'611.2 290 / 61014.0 5.4 27.0 29.0
2017-Aug-13 05:29N 35°54' E 014°31'2 4.8
2017-Aug-13 05:00N 35°55' E 014°33'815.2
2017-Aug-13 04:30N 36°01' E 014°39'815.4
2017-Aug-13 04:00N 36°08' E 014°44'815.4
2017-Aug-13 03:30N 36°14' E 014°50'713.7
2017-Aug-13 02:58N 36°20' E 014°55'1611.6
2017-Aug-13 01:34N 36°33' E 015°07'1711.1
2017-Aug-13 00:00N 36°48' E 015°18'2412.2 300 / 171014.010.8 26.0
2017-Aug-12 22:00N 37°12' E 015°24'311.5 340 / 101014.0 5.4 27.0
2017-Aug-12 21:44N 37°14' E 015°27'311.4
2017-Aug-12 21:30N 37°16' E 015°27'611.4
2017-Aug-12 20:59N 37°22' E 015°28'1811.5
2017-Aug-12 19:24N 37°40' E 015°31'512.4
2017-Aug-12 18:59N 37°46' E 015°32'715.3
2017-Aug-12 18:30N 37°53' E 015°33'815.1
2017-Aug-12 18:00N 38°00' E 015°34'815.7
2017-Aug-12 17:30N 38°08' E 015°35'4 7.4
2017-Aug-12 17:00N 38°12' E 015°33'0 0.0
2017-Aug-12 16:27N 38°12' E 015°33'0 0.0
2017-Aug-12 16:00N 38°12' E 015°33'0 0.0
2017-Aug-12 15:27N 38°12' E 015°33'0 0.0
2017-Aug-12 15:00N 38°12' E 015°33'0 0.0
2017-Aug-12 14:30N 38°12' E 015°33'0 0.0
2017-Aug-12 14:00N 38°12' E 015°33'0 0.0
2017-Aug-12 13:30N 38°12' E 015°33'0 0.0
2017-Aug-12 13:00N 38°12' E 015°33'0 0.0
2017-Aug-12 12:30N 38°12' E 015°33'0 0.0
2017-Aug-12 12:00N 38°12' E 015°33'63198.4
2017-Aug-12 12:00N 38°06' E 015°30'6 8.3 330 / 151015.010.8 29.6
2017-Aug-12 11:15N 38°12' E 015°33'0 0.0
2017-Aug-12 11:00N 38°12' E 015°33'0 0.0
2017-Aug-12 10:29N 38°12' E 015°33'0 0.0
2017-Aug-12 09:56N 38°12' E 015°33'0 0.0
2017-Aug-12 09:29N 38°12' E 015°33'0 0.0
2017-Aug-12 08:59N 38°12' E 015°33'0 0.0
2017-Aug-12 08:29N 38°12' E 015°33'0 0.0
2017-Aug-12 07:59N 38°12' E 015°33'0 0.4
2017-Aug-12 07:30N 38°12' E 015°34'510.7
2017-Aug-12 07:00N 38°15' E 015°39'713.9
2017-Aug-12 06:30N 38°22' E 015°38'816.8
2017-Aug-12 06:00N 38°30' E 015°33'916.9
2017-Aug-12 05:30N 38°37' E 015°27'919.4
2017-Aug-12 05:00N 38°46' E 015°22'1019.3
2017-Aug-12 04:30N 38°54' E 015°16'2919.2
2017-Aug-12 03:00N 39°16' E 014°52'17719.6
2017-Aug-11 18:00N 41°24' E 012°12'48 7.9 280 / 301015.0 2.2 24.0 26.9
2017-Aug-11 12:00N 42°06' E 011°42'0 0.0 240 / 161015.010.8 24.0
2017-Aug-11 10:00N 42°06' E 011°42'0 0.0 270 / 151014.0 5.4 27.0
2017-Aug-11 05:00N 42°06' E 011°42'32 6.5 220 / 101018.0 2.2 26.0 28.2
2017-Aug-11 00:00N 41°48' E 011°06'4214.0 260 / 221014.0 5.4 24.0
2017-Aug-10 21:00N 41°36' E 010°12'5518.3 270 / 301013.0 5.4 26.0
2017-Aug-10 18:00N 41°12' E 009°06'3114.4 290 / 181018.0 2.2 26.0 26.4
2017-Aug-10 15:52N 41°13' E 008°25'6316.3
2017-Aug-10 12:00N 40°42' E 007°12'24540.8 330 / 301018.0 5.4 21.0
2017-Aug-10 06:00N 36°54' E 005°18'17157.1 020 / 381016.0 2.2 40.0 27.1
2017-Aug-10 03:00N 39°42' E 004°36'2416.0 360 / 331013.0 2.2 25.0 27.4
2017-Aug-10 01:29N 39°29' E 004°10'915.8
2017-Aug-10 00:54N 39°24' E 003°59'716.0
2017-Aug-10 00:28N 39°21' E 003°51'816.1
2017-Aug-10 00:00N 39°17' E 003°43'519720.4
2017-Aug-10 00:00N 39°12' E 003°42'713.4 020 / 301012.0 5.4 23.0
2017-Aug-09 23:30N 39°14' E 003°34'816.0
2017-Aug-09 23:00N 39°10' E 003°25'816.0
2017-Aug-09 22:30N 39°06' E 003°16'815.6
2017-Aug-09 22:00N 39°05' E 003°06'815.6
2017-Aug-09 21:30N 39°04' E 002°56'815.5
2017-Aug-09 21:00N 39°03' E 002°46'815.5
2017-Aug-09 20:30N 39°02' E 002°36'815.5
2017-Aug-09 20:00N 39°00' E 002°26'815.5
2017-Aug-09 19:30N 38°59' E 002°16'815.6
2017-Aug-09 19:00N 38°58' E 002°06'815.5
2017-Aug-09 18:30N 38°57' E 001°57'815.6
2017-Aug-09 18:01N 38°56' E 001°47'4247.0
2017-Aug-09 18:00N 38°54' E 001°42'4 8.4 090 / 301013.0 2.2 26.8
2017-Aug-09 17:30N 38°55' E 001°37'714.9
2017-Aug-09 17:00N 38°54' E 001°27'0 0.9
2017-Aug-09 16:26N 38°54' E 001°27'0 0.0
2017-Aug-09 15:59N 38°54' E 001°27'0 0.0
2017-Aug-09 15:29N 38°54' E 001°27'2 4.7
2017-Aug-09 15:00N 38°54' E 001°24'2 8.8 080 / 111013.0 2.2 27.0 28.4
2017-Aug-09 14:44N 38°54' E 001°27'0 0.0
2017-Aug-09 14:29N 38°54' E 001°27'0 0.0
2017-Aug-09 13:59N 38°54' E 001°27'0 0.0
2017-Aug-09 13:29N 38°54' E 001°27'0 0.0
2017-Aug-09 12:59N 38°54' E 001°27'0 0.0
2017-Aug-09 12:26N 38°54' E 001°27'2 5.2
2017-Aug-09 12:00N 38°54' E 001°24'2186.9 090 / 121014.0 5.4 27.0 28.0
2017-Aug-09 11:59N 38°54' E 001°27'0 0.0
2017-Aug-09 11:29N 38°54' E 001°27'0 0.0
2017-Aug-09 10:59N 38°54' E 001°27'0 0.0
2017-Aug-09 10:29N 38°54' E 001°27'0 0.0
2017-Aug-09 09:59N 38°54' E 001°27'0 0.0
2017-Aug-09 09:28N 38°54' E 001°27'0 0.0
2017-Aug-09 08:58N 38°54' E 001°27'0 0.0
2017-Aug-09 08:28N 38°54' E 001°27'0 0.0
2017-Aug-09 07:58N 38°54' E 001°27'0 0.0
2017-Aug-09 07:28N 38°54' E 001°27'2 4.8
2017-Aug-09 07:00N 38°54' E 001°24'292.4 100 / 151014.0 5.4 25.0
2017-Aug-09 06:58N 38°54' E 001°27'0 0.0
2017-Aug-09 06:28N 38°54' E 001°27'2 4.8
2017-Aug-09 06:00N 38°54' E 001°24'2540.2 100 / 161013.0 2.2 24.0 28.2
2017-Aug-09 05:59N 38°54' E 001°27'1 1.4
2017-Aug-09 05:30N 38°54' E 001°27'3 6.0
2017-Aug-09 05:00N 38°51' E 001°30'611.9
2017-Aug-09 04:30N 38°47' E 001°35'611.7
2017-Aug-09 03:59N 38°42' E 001°39'510.8
2017-Aug-09 03:30N 38°37' E 001°36'611.3
2017-Aug-09 02:56N 38°33' E 001°30'611.5
2017-Aug-09 02:26N 38°30' E 001°24'512.2
2017-Aug-09 02:00N 38°27' E 001°18'2012.8
2017-Aug-09 00:27N 38°15' E 000°58'817.9
2017-Aug-09 00:00N 38°12' E 000°48'1511.4 360 / 161013.0 5.4 27.0
2017-Aug-08 22:39N 38°02' E 000°33'312.6
2017-Aug-08 22:27N 38°01' E 000°31'2012.5
2017-Aug-08 20:49N 37°49' E 000°09'512.4
2017-Aug-08 20:25N 37°46' E 000°04'512.4
2017-Aug-08 20:00N 37°43' W 000°01'612.5
2017-Aug-08 19:30N 37°40' W 000°08'612.6
2017-Aug-08 19:00N 37°37' W 000°14'612.5
2017-Aug-08 18:30N 37°33' W 000°21'612.6
2017-Aug-08 18:00N 37°31' W 000°28'1100.9
2017-Aug-08 18:00N 37°30' W 000°30'510.4 360 / 51010.0 29.0
2017-Aug-08 17:30N 37°30' W 000°36'613.0
2017-Aug-08 17:00N 37°31' W 000°44'612.9
2017-Aug-08 16:30N 37°32' W 000°53'6 4.9
2017-Aug-08 15:13N 37°36' W 000°59'7 2.2
2017-Aug-08 12:00N 37°30' W 000°54'   190 / 131010.0 5.4 30.0 30.0

Dump ship's entire track history